Time;durP1;ratioP1;P1;durP2;ratioP2;P2;SDS_P1;SDS_P2;PMS_P1;PMS_P2;Temp;Humidity;BMP_temperature;BMP_pressure;BME280_temperature;BME280_humidity;BME280_pressure;Samples;Min_cycle;Max_cycle;Signal;HPM_P1;HPM_P2
2022/08/27 00:00:09;;;;;;;5.55;2.65;;;;;;;;;;4999128;28;20061;-58
2022/08/27 00:02:36;;;;;;;5.75;2.95;;;;;;;;;;4998647;28;20041;-57
2022/08/27 00:05:03;;;;;;;5.32;2.90;;;;;;;;;;5000031;28;20046;-57
2022/08/27 00:07:30;;;;;;;6.90;3.30;;;;;;;;;;4999842;28;20580;-58
2022/08/27 00:09:56;;;;;;;4.72;2.80;;;;;;;;;;5013298;28;20091;-58
2022/08/27 00:12:23;;;;;;;4.75;2.67;;;;;;;;;;5002194;28;21455;-58
2022/08/27 00:14:50;;;;;;;10.00;3.03;;;;;;;;;;4997004;28;20093;-58
2022/08/27 00:17:17;;;;;;;14.52;2.28;;;;;;;;;;4999781;28;20046;-59
2022/08/27 00:19:43;;;;;;;4.60;1.40;;;;;;;;;;4997525;28;20046;-59
2022/08/27 00:22:11;;;;;;;7.22;1.30;;;;;;;;;;4999536;28;20037;-58
2022/08/27 00:24:38;;;;;;;4.43;1.20;;;;;;;;;;4998225;28;20045;-59
2022/08/27 00:27:05;;;;;;;4.90;1.02;;;;;;;;;;4997836;28;20038;-58
2022/08/27 00:29:31;;;;;;;3.35;1.25;;;;;;;;;;4998359;28;20054;-59
2022/08/27 00:31:58;;;;;;;7.72;1.00;;;;;;;;;;4997425;28;20042;-59
2022/08/27 00:34:25;;;;;;;7.68;1.45;;;;;;;;;;4998142;28;20508;-59
2022/08/27 00:36:52;;;;;;;3.42;1.40;;;;;;;;;;4999028;28;20376;-59
2022/08/27 00:39:19;;;;;;;9.13;1.60;;;;;;;;;;4997926;28;20454;-59
2022/08/27 00:41:47;;;;;;;13.13;1.60;;;;;;;;;;5006380;28;20030;-58
2022/08/27 00:44:14;;;;;;;4.15;1.33;;;;;;;;;;4997746;28;20064;-59
2022/08/27 00:46:45;;;;;;;3.25;1.20;;;;;;;;;;4996911;28;20038;-59
2022/08/27 00:49:15;;;;;;;7.55;1.30;;;;;;;;;;4997849;28;20416;-58
2022/08/27 00:51:42;;;;;;;5.13;1.00;;;;;;;;;;4997993;28;20613;-59
2022/08/27 00:54:09;;;;;;;8.02;1.52;;;;;;;;;;4996815;28;20045;-58
2022/08/27 00:56:43;;;;;;;5.03;1.40;;;;;;;;;;4997613;28;20050;-58
2022/08/27 00:59:13;;;;;;;6.95;1.38;;;;;;;;;;4996938;28;20438;-58
2022/08/27 01:02:17;;;;;;;4.15;1.10;;;;;;;;;;4996712;28;20042;-60
2022/08/27 01:04:27;;;;;;;3.88;1.40;;;;;;;;;;4996427;28;20060;-59
2022/08/27 01:06:54;;;;;;;4.97;1.38;;;;;;;;;;4997387;28;20069;-59
2022/08/27 01:09:21;;;;;;;4.43;1.30;;;;;;;;;;4997186;28;20062;-60
2022/08/27 01:11:48;;;;;;;3.05;1.27;;;;;;;;;;4997098;28;20042;-59
2022/08/27 01:14:14;;;;;;;4.38;1.30;;;;;;;;;;4997258;28;20046;-59
2022/08/27 01:16:45;;;;;;;4.03;1.38;;;;;;;;;;4996965;28;20274;-60
2022/08/27 01:19:22;;;;;;;3.67;1.35;;;;;;;;;;4997409;28;20105;-59
2022/08/27 01:21:55;;;;;;;6.65;1.65;;;;;;;;;;5004476;28;20041;-59
2022/08/27 01:24:31;;;;;;;3.92;1.42;;;;;;;;;;4995562;28;20053;-60
2022/08/27 01:26:59;;;;;;;7.15;1.80;;;;;;;;;;4996549;28;20058;-59
2022/08/27 01:29:25;;;;;;;3.35;1.52;;;;;;;;;;4996389;28;20054;-59
2022/08/27 01:31:52;;;;;;;3.88;1.50;;;;;;;;;;4997252;28;20116;-59
2022/08/27 01:34:19;;;;;;;4.15;1.65;;;;;;;;;;4995884;28;20038;-59
2022/08/27 01:36:45;;;;;;;3.55;1.35;;;;;;;;;;4995842;28;20080;-60
2022/08/27 01:39:12;;;;;;;4.32;1.70;;;;;;;;;;4997172;28;20048;-59
2022/08/27 01:41:38;;;;;;;3.95;1.70;;;;;;;;;;4996161;28;20847;-59
2022/08/27 01:44:05;;;;;;;5.45;1.70;;;;;;;;;;4995955;28;20419;-60
2022/08/27 01:46:31;;;;;;;3.50;1.60;;;;;;;;;;4995710;28;21167;-59
2022/08/27 01:48:58;;;;;;;3.85;1.52;;;;;;;;;;4996418;28;20059;-59
2022/08/27 01:51:25;;;;;;;3.88;1.67;;;;;;;;;;4995872;28;20224;-60
2022/08/27 01:53:51;;;;;;;4.45;1.70;;;;;;;;;;4996483;28;20041;-60
2022/08/27 01:56:18;;;;;;;4.15;1.75;;;;;;;;;;4996593;28;20034;-59
2022/08/27 01:58:45;;;;;;;7.07;2.45;;;;;;;;;;4995672;28;20049;-59
2022/08/27 02:01:15;;;;;;;4.95;1.90;;;;;;;;;;4996107;28;20038;-59
2022/08/27 02:03:41;;;;;;;4.10;1.80;;;;;;;;;;4994495;28;20733;-59
2022/08/27 02:06:09;;;;;;;4.45;2.00;;;;;;;;;;4994108;28;20053;-61
2022/08/27 02:08:36;;;;;;;3.30;1.55;;;;;;;;;;4997016;28;20104;-61
2022/08/27 02:11:03;;;;;;;3.85;1.65;;;;;;;;;;4997775;28;20045;-61
2022/08/27 02:13:30;;;;;;;3.90;1.90;;;;;;;;;;4995470;28;20080;-61
2022/08/27 02:15:56;;;;;;;4.50;1.70;;;;;;;;;;5011505;28;20049;-61
2022/08/27 02:18:23;;;;;;;6.72;2.25;;;;;;;;;;5000411;28;20494;-62
2022/08/27 02:20:50;;;;;;;4.95;2.20;;;;;;;;;;4997725;28;20041;-61
2022/08/27 02:23:23;;;;;;;5.35;2.30;;;;;;;;;;4987462;28;20101;-61
2022/08/27 02:25:50;;;;;;;5.28;1.98;;;;;;;;;;4996814;28;20139;-67
2022/08/27 02:28:17;;;;;;;4.18;2.10;;;;;;;;;;4997111;28;20046;-66
2022/08/27 02:30:44;;;;;;;4.25;2.03;;;;;;;;;;4997199;28;20099;-67
2022/08/27 02:33:12;;;;;;;7.25;2.20;;;;;;;;;;4997659;28;20038;-66
2022/08/27 02:35:39;;;;;;;5.88;2.10;;;;;;;;;;4997320;28;20034;-66
2022/08/27 02:38:06;;;;;;;5.85;2.45;;;;;;;;;;4997150;28;20104;-65
2022/08/27 02:40:33;;;;;;;5.82;2.15;;;;;;;;;;4994717;28;20132;-65
2022/08/27 02:43:00;;;;;;;4.80;2.00;;;;;;;;;;4996318;28;20061;-65
2022/08/27 02:45:26;;;;;;;4.82;1.85;;;;;;;;;;4997571;28;20371;-65
2022/08/27 02:47:53;;;;;;;7.38;2.10;;;;;;;;;;5008558;28;20080;-66
2022/08/27 02:50:24;;;;;;;4.47;2.30;;;;;;;;;;5001661;28;20042;-66
2022/08/27 02:52:51;;;;;;;4.55;2.25;;;;;;;;;;5024630;28;20140;-66
2022/08/27 02:55:18;;;;;;;4.97;2.45;;;;;;;;;;5001887;28;20062;-65
2022/08/27 02:57:45;;;;;;;4.90;2.05;;;;;;;;;;5000051;28;20052;-66
2022/08/27 03:00:13;;;;;;;4.32;2.28;;;;;;;;;;5000243;28;20064;-65
2022/08/27 03:02:40;;;;;;;5.05;2.30;;;;;;;;;;4998294;28;20114;-65
2022/08/27 03:05:07;;;;;;;4.82;2.35;;;;;;;;;;5001660;28;20398;-65
2022/08/27 03:07:34;;;;;;;4.30;2.35;;;;;;;;;;5001226;28;20049;-65
2022/08/27 03:10:00;;;;;;;5.32;2.33;;;;;;;;;;5001677;28;20046;-64
2022/08/27 03:12:27;;;;;;;6.13;2.30;;;;;;;;;;4999232;28;20045;-65
2022/08/27 03:14:53;;;;;;;4.45;2.38;;;;;;;;;;5001202;28;20046;-65
2022/08/27 03:20:06;;;;;;;4.10;2.03;;;;;;;;;;5002237;28;20103;-67
2022/08/27 03:22:33;;;;;;;4.75;2.38;;;;;;;;;;5001041;28;20037;-67
2022/08/27 03:25:01;;;;;;;4.45;2.22;;;;;;;;;;5001454;28;20141;-67
2022/08/27 03:27:28;;;;;;;4.38;2.35;;;;;;;;;;5001077;28;20067;-67
2022/08/27 03:29:54;;;;;;;4.50;2.00;;;;;;;;;;5002038;28;20101;-67
2022/08/27 03:32:21;;;;;;;4.80;2.80;;;;;;;;;;5000839;28;20150;-66
2022/08/27 03:34:48;;;;;;;4.38;2.38;;;;;;;;;;5002705;28;20045;-66
2022/08/27 03:37:14;;;;;;;6.00;2.80;;;;;;;;;;5001139;28;20084;-66
2022/08/27 03:39:41;;;;;;;4.70;2.28;;;;;;;;;;4997665;28;20073;-67
2022/08/27 03:42:07;;;;;;;4.85;2.40;;;;;;;;;;5000697;28;20048;-67
2022/08/27 03:44:34;;;;;;;5.75;2.40;;;;;;;;;;4999827;28;20073;-67
2022/08/27 03:47:00;;;;;;;4.60;2.50;;;;;;;;;;5001766;28;20037;-67
2022/08/27 03:49:27;;;;;;;4.93;2.58;;;;;;;;;;4999380;28;20069;-65
2022/08/27 03:51:54;;;;;;;5.50;2.40;;;;;;;;;;5000819;28;20042;-65
2022/08/27 03:54:21;;;;;;;5.55;2.25;;;;;;;;;;4997578;28;20064;-67
2022/08/27 03:56:47;;;;;;;6.35;2.60;;;;;;;;;;5000502;28;20499;-66
2022/08/27 03:59:14;;;;;;;5.00;2.60;;;;;;;;;;5000268;28;20038;-66
2022/08/27 04:01:41;;;;;;;5.20;2.90;;;;;;;;;;4999754;28;20168;-66
2022/08/27 04:04:07;;;;;;;4.70;2.33;;;;;;;;;;5005118;28;20129;-66
2022/08/27 04:06:35;;;;;;;4.88;2.45;;;;;;;;;;4999238;28;20037;-66
2022/08/27 04:09:02;;;;;;;5.53;2.63;;;;;;;;;;4997352;28;20105;-65
2022/08/27 04:11:28;;;;;;;5.35;2.97;;;;;;;;;;4999372;28;20045;-66
2022/08/27 04:13:56;;;;;;;5.05;2.58;;;;;;;;;;4999339;28;20092;-66
2022/08/27 04:16:24;;;;;;;6.05;2.90;;;;;;;;;;4999557;28;20088;-65
2022/08/27 04:18:51;;;;;;;4.57;2.60;;;;;;;;;;5002333;28;20061;-65
2022/08/27 04:21:17;;;;;;;5.25;2.50;;;;;;;;;;5001526;28;20596;-66
2022/08/27 04:23:44;;;;;;;5.43;3.05;;;;;;;;;;5000052;28;20722;-66
2022/08/27 04:26:11;;;;;;;5.03;2.47;;;;;;;;;;5001033;28;20156;-67
2022/08/27 04:28:38;;;;;;;7.55;2.78;;;;;;;;;;5000346;28;20097;-67
2022/08/27 04:31:07;;;;;;;6.88;2.60;;;;;;;;;;5001084;28;20049;-65
2022/08/27 04:33:33;;;;;;;4.75;2.75;;;;;;;;;;4999778;28;20882;-66
2022/08/27 04:36:04;;;;;;;5.32;2.67;;;;;;;;;;5001460;28;20034;-66
2022/08/27 04:38:31;;;;;;;5.43;2.58;;;;;;;;;;4994990;28;20054;-66
2022/08/27 04:43:43;;;;;;;5.35;2.53;;;;;;;;;;4999162;28;20117;-66
2022/08/27 04:46:10;;;;;;;6.78;2.55;;;;;;;;;;5000079;28;20437;-67
2022/08/27 04:48:36;;;;;;;5.35;2.65;;;;;;;;;;5000349;28;20046;-66
2022/08/27 04:51:03;;;;;;;8.68;3.05;;;;;;;;;;5001744;28;20068;-67
2022/08/27 04:53:29;;;;;;;7.72;2.40;;;;;;;;;;5000871;28;20476;-67
2022/08/27 04:55:57;;;;;;;5.38;2.42;;;;;;;;;;5003194;28;20254;-67
2022/08/27 04:58:25;;;;;;;6.32;2.95;;;;;;;;;;5002092;28;20411;-66
2022/08/27 05:00:53;;;;;;;9.18;3.00;;;;;;;;;;5002729;28;20042;-67
2022/08/27 05:03:24;;;;;;;9.27;2.75;;;;;;;;;;5001594;28;20054;-66
2022/08/27 05:05:53;;;;;;;6.68;2.78;;;;;;;;;;5002421;28;20057;-66
2022/08/27 05:08:19;;;;;;;7.45;2.67;;;;;;;;;;5001928;28;20041;-66
2022/08/27 05:10:47;;;;;;;4.75;2.58;;;;;;;;;;4999394;28;20474;-66
2022/08/27 05:13:14;;;;;;;5.95;2.65;;;;;;;;;;4999603;28;20419;-66
2022/08/27 05:15:41;;;;;;;6.90;3.67;;;;;;;;;;5000277;28;20128;-66
2022/08/27 05:18:08;;;;;;;8.63;3.42;;;;;;;;;;5001607;28;20553;-66
2022/08/27 05:20:41;;;;;;;6.50;3.58;;;;;;;;;;5001568;28;20097;-66
2022/08/27 05:23:07;;;;;;;8.55;4.68;;;;;;;;;;4998860;28;20049;-66
2022/08/27 05:25:38;;;;;;;9.00;4.25;;;;;;;;;;5001007;28;20061;-66
2022/08/27 05:28:04;;;;;;;7.15;3.47;;;;;;;;;;5000928;28;20041;-66
2022/08/27 05:30:35;;;;;;;5.55;3.47;;;;;;;;;;5003097;28;20041;-65
2022/08/27 05:33:02;;;;;;;9.63;6.07;;;;;;;;;;5005114;28;20042;-67
2022/08/27 05:35:30;;;;;;;5.97;3.22;;;;;;;;;;5007772;28;20109;-65
2022/08/27 05:37:58;;;;;;;4.78;2.78;;;;;;;;;;5005413;28;20030;-67
2022/08/27 05:40:24;;;;;;;8.45;3.40;;;;;;;;;;5005010;28;20042;-66
2022/08/27 05:42:51;;;;;;;6.47;3.35;;;;;;;;;;5005153;28;20124;-66
2022/08/27 05:45:18;;;;;;;5.78;3.00;;;;;;;;;;5026423;28;20049;-67
2022/08/27 05:47:44;;;;;;;6.72;3.22;;;;;;;;;;5002770;28;20037;-67
2022/08/27 05:50:11;;;;;;;6.43;3.17;;;;;;;;;;5001448;28;20121;-66
2022/08/27 05:52:38;;;;;;;6.07;3.38;;;;;;;;;;4999664;28;20038;-67
2022/08/27 05:55:05;;;;;;;5.97;2.92;;;;;;;;;;5001014;28;20406;-66
2022/08/27 05:57:31;;;;;;;7.00;3.15;;;;;;;;;;5009562;28;20045;-67
2022/08/27 06:02:45;;;;;;;5.07;2.88;;;;;;;;;;5000296;28;20517;-67
2022/08/27 06:05:12;;;;;;;5.18;2.92;;;;;;;;;;5001563;28;20038;-67
2022/08/27 06:07:38;;;;;;;5.85;3.00;;;;;;;;;;5000632;28;20038;-66
2022/08/27 06:10:06;;;;;;;5.97;2.95;;;;;;;;;;5000275;28;20064;-66
2022/08/27 06:12:33;;;;;;;5.57;3.15;;;;;;;;;;5000295;28;20038;-66
2022/08/27 06:15:00;;;;;;;5.35;2.65;;;;;;;;;;5001185;28;20085;-66
2022/08/27 06:17:27;;;;;;;5.82;3.10;;;;;;;;;;5007110;28;20050;-66
2022/08/27 06:19:53;;;;;;;5.68;3.33;;;;;;;;;;4996996;28;20187;-66
2022/08/27 06:22:20;;;;;;;6.10;2.78;;;;;;;;;;4999671;28;20140;-65
2022/08/27 06:24:46;;;;;;;5.47;2.67;;;;;;;;;;4992616;28;20042;-66
2022/08/27 06:27:16;;;;;;;5.05;2.75;;;;;;;;;;4999259;28;20054;-65
2022/08/27 06:29:43;;;;;;;6.55;2.75;;;;;;;;;;5000580;28;20085;-66
2022/08/27 06:32:10;;;;;;;5.65;3.10;;;;;;;;;;4998698;28;20136;-66
2022/08/27 06:34:37;;;;;;;5.45;2.83;;;;;;;;;;4999662;28;20071;-65
2022/08/27 06:37:03;;;;;;;5.78;2.95;;;;;;;;;;4999709;28;20482;-66
2022/08/27 06:39:30;;;;;;;5.82;2.78;;;;;;;;;;5000277;28;20042;-66
2022/08/27 06:41:57;;;;;;;5.60;3.13;;;;;;;;;;5000110;28;20030;-66
2022/08/27 06:44:24;;;;;;;5.03;2.83;;;;;;;;;;5000988;28;20108;-66
2022/08/27 06:46:51;;;;;;;6.13;3.33;;;;;;;;;;5001189;28;20042;-66
2022/08/27 06:49:18;;;;;;;5.55;3.22;;;;;;;;;;4999593;28;20050;-66
2022/08/27 06:51:45;;;;;;;5.75;3.15;;;;;;;;;;4999683;28;20045;-66
2022/08/27 06:54:13;;;;;;;5.97;2.95;;;;;;;;;;5000565;28;20674;-66
2022/08/27 06:56:40;;;;;;;5.07;2.78;;;;;;;;;;4998190;28;20037;-66
2022/08/27 06:59:08;;;;;;;4.97;2.70;;;;;;;;;;4999486;28;20131;-66
2022/08/27 07:01:36;;;;;;;5.57;2.97;;;;;;;;;;4999939;28;20095;-66
2022/08/27 07:04:04;;;;;;;6.00;3.40;;;;;;;;;;4999565;28;20045;-65
2022/08/27 07:06:31;;;;;;;5.88;2.60;;;;;;;;;;5001054;28;20384;-64
2022/08/27 07:08:59;;;;;;;6.25;2.90;;;;;;;;;;5002105;28;20440;-64
2022/08/27 07:11:27;;;;;;;5.90;3.30;;;;;;;;;;5000917;28;20594;-65
2022/08/27 07:13:55;;;;;;;5.15;2.65;;;;;;;;;;4999393;28;20046;-65
2022/08/27 07:16:22;;;;;;;4.85;2.60;;;;;;;;;;4999395;28;20034;-65
2022/08/27 07:18:50;;;;;;;5.65;2.95;;;;;;;;;;4992775;28;20034;-65
2022/08/27 07:21:18;;;;;;;5.53;3.13;;;;;;;;;;5000786;28;20033;-66
2022/08/27 07:23:46;;;;;;;6.20;3.00;;;;;;;;;;5017837;28;20050;-65
2022/08/27 07:26:13;;;;;;;6.35;3.28;;;;;;;;;;5002887;28;20056;-66
2022/08/27 07:28:42;;;;;;;8.40;4.00;;;;;;;;;;5024344;28;20098;-64
2022/08/27 07:31:09;;;;;;;5.45;3.17;;;;;;;;;;5014865;28;20045;-65
2022/08/27 07:33:37;;;;;;;5.10;2.72;;;;;;;;;;4999246;28;21658;-65
2022/08/27 07:36:04;;;;;;;5.53;2.95;;;;;;;;;;5000594;28;20046;-65
2022/08/27 07:38:30;;;;;;;5.63;3.22;;;;;;;;;;4998554;28;20643;-66
2022/08/27 07:40:57;;;;;;;5.80;2.97;;;;;;;;;;4997917;28;20034;-65
2022/08/27 07:46:09;;;;;;;6.03;3.10;;;;;;;;;;5001282;28;20510;-66
2022/08/27 07:48:35;;;;;;;8.05;3.33;;;;;;;;;;5000014;28;20146;-65
2022/08/27 07:51:04;;;;;;;5.63;3.05;;;;;;;;;;5001133;28;20068;-65
2022/08/27 07:53:31;;;;;;;6.28;3.30;;;;;;;;;;4999197;28;20443;-65
2022/08/27 07:56:05;;;;;;;5.15;3.03;;;;;;;;;;5000558;28;20839;-65
2022/08/27 07:58:32;;;;;;;5.85;3.20;;;;;;;;;;5000450;28;20042;-65
2022/08/27 08:00:59;;;;;;;7.15;3.65;;;;;;;;;;5000390;28;20052;-65
2022/08/27 08:03:26;;;;;;;7.25;3.58;;;;;;;;;;4998747;28;20040;-66
2022/08/27 08:05:53;;;;;;;5.55;3.17;;;;;;;;;;5000788;28;20064;-65
2022/08/27 08:08:20;;;;;;;6.25;3.30;;;;;;;;;;4999495;28;20148;-65
2022/08/27 08:10:47;;;;;;;6.93;3.22;;;;;;;;;;5000625;28;20045;-65
2022/08/27 08:13:14;;;;;;;7.47;3.40;;;;;;;;;;4998878;28;20045;-64
2022/08/27 08:15:43;;;;;;;6.88;3.58;;;;;;;;;;4999275;28;20042;-64
2022/08/27 08:18:10;;;;;;;7.00;3.33;;;;;;;;;;5017777;28;20065;-64
2022/08/27 08:20:37;;;;;;;5.82;3.20;;;;;;;;;;5016002;28;20034;-64
2022/08/27 08:23:03;;;;;;;6.85;3.60;;;;;;;;;;4999998;28;20100;-66
2022/08/27 08:25:30;;;;;;;7.13;3.63;;;;;;;;;;4998654;28;20506;-65
2022/08/27 08:27:57;;;;;;;5.63;3.38;;;;;;;;;;4999127;28;20109;-64
2022/08/27 08:30:23;;;;;;;6.13;3.22;;;;;;;;;;5000574;28;20049;-65
2022/08/27 08:32:50;;;;;;;6.88;3.53;;;;;;;;;;4993449;28;20073;-64
2022/08/27 08:35:16;;;;;;;6.45;3.40;;;;;;;;;;4999349;28;20498;-65
2022/08/27 08:37:43;;;;;;;5.90;3.25;;;;;;;;;;4998602;28;20062;-65
2022/08/27 08:40:12;;;;;;;6.40;3.50;;;;;;;;;;4998778;28;20053;-65
2022/08/27 08:42:46;;;;;;;7.35;3.90;;;;;;;;;;4997969;28;20065;-65
2022/08/27 08:45:15;;;;;;;6.38;3.45;;;;;;;;;;4999114;28;20061;-66
2022/08/27 08:47:46;;;;;;;7.00;3.53;;;;;;;;;;4998893;28;20040;-66
2022/08/27 08:50:16;;;;;;;6.03;3.10;;;;;;;;;;4999043;28;20164;-66
2022/08/27 08:52:50;;;;;;;6.75;3.42;;;;;;;;;;4997275;28;20037;-66
2022/08/27 08:55:17;;;;;;;7.78;3.60;;;;;;;;;;4997984;28;20042;-66
2022/08/27 08:58:02;;;;;;;5.70;3.33;;;;;;;;;;4997666;28;20072;-66
2022/08/27 09:00:29;;;;;;;6.68;3.67;;;;;;;;;;4997374;28;20038;-65
2022/08/27 09:02:55;;;;;;;5.95;3.40;;;;;;;;;;4998810;28;20041;-65
2022/08/27 09:05:24;;;;;;;5.78;3.30;;;;;;;;;;4998767;28;20070;-65
2022/08/27 09:08:01;;;;;;;6.75;4.10;;;;;;;;;;5006095;28;20045;-65
2022/08/27 09:10:53;;;;;;;7.72;4.10;;;;;;;;;;4997737;28;20052;-65
2022/08/27 09:13:22;;;;;;;7.33;4.50;;;;;;;;;;4992425;28;20087;-65
2022/08/27 09:15:50;;;;;;;8.25;4.70;;;;;;;;;;4998261;28;20438;-65
2022/08/27 09:18:16;;;;;;;6.47;3.58;;;;;;;;;;4997910;28;20064;-66
2022/08/27 09:20:46;;;;;;;9.07;4.10;;;;;;;;;;4997890;28;20112;-66
2022/08/27 09:23:16;;;;;;;8.07;4.30;;;;;;;;;;4997501;28;20061;-66
2022/08/27 09:25:43;;;;;;;8.13;4.00;;;;;;;;;;4997662;28;20800;-66
2022/08/27 09:29:14;;;;;;;8.75;3.75;;;;;;;;;;4998139;28;20133;-66
2022/08/27 09:31:13;;;;;;;7.97;3.63;;;;;;;;;;5004412;28;20046;-66
2022/08/27 09:33:39;;;;;;;7.70;3.60;;;;;;;;;;4996570;28;20041;-66
2022/08/27 09:36:12;;;;;;;7.05;3.95;;;;;;;;;;4997481;28;20519;-66
2022/08/27 09:38:40;;;;;;;7.32;3.90;;;;;;;;;;4997242;28;20037;-66
2022/08/27 09:41:11;;;;;;;7.53;4.35;;;;;;;;;;4998259;28;20039;-66
2022/08/27 09:43:42;;;;;;;10.48;4.20;;;;;;;;;;4995113;28;20057;-64
2022/08/27 09:46:20;;;;;;;7.03;3.88;;;;;;;;;;5013574;28;20909;-65
2022/08/27 09:48:47;;;;;;;7.43;3.83;;;;;;;;;;5013363;28;20049;-65
2022/08/27 09:51:16;;;;;;;6.78;4.03;;;;;;;;;;4998226;28;20581;-66
2022/08/27 09:53:49;;;;;;;6.88;4.07;;;;;;;;;;4995668;28;20182;-66
2022/08/27 09:56:25;;;;;;;7.13;3.78;;;;;;;;;;4997132;28;20044;-66
2022/08/27 09:59:00;;;;;;;8.00;4.18;;;;;;;;;;4997913;28;20038;-66
2022/08/27 10:01:29;;;;;;;7.55;4.20;;;;;;;;;;4996752;28;20086;-65
2022/08/27 10:04:05;;;;;;;6.35;3.78;;;;;;;;;;4996283;28;20041;-65
2022/08/27 10:06:32;;;;;;;9.52;3.97;;;;;;;;;;4996284;28;20050;-65
2022/08/27 10:09:17;;;;;;;7.88;4.40;;;;;;;;;;4997489;28;20136;-66
2022/08/27 10:11:52;;;;;;;7.65;4.20;;;;;;;;;;4995544;28;20501;-66
2022/08/27 10:14:24;;;;;;;8.23;4.10;;;;;;;;;;4997322;28;20431;-65
2022/08/27 10:16:54;;;;;;;6.45;4.00;;;;;;;;;;5011678;28;20053;-65
2022/08/27 10:19:35;;;;;;;6.43;3.75;;;;;;;;;;4994439;28;20034;-66
2022/08/27 10:22:02;;;;;;;7.38;4.03;;;;;;;;;;4996023;28;20083;-65
2022/08/27 10:24:31;;;;;;;6.03;3.70;;;;;;;;;;4996519;28;20034;-66
2022/08/27 10:27:13;;;;;;;6.70;3.78;;;;;;;;;;4997556;28;20133;-65
2022/08/27 10:29:44;;;;;;;5.70;3.35;;;;;;;;;;4996027;28;20055;-65
2022/08/27 10:32:34;;;;;;;7.93;3.80;;;;;;;;;;4995440;28;20121;-64
2022/08/27 10:35:03;;;;;;;8.02;4.00;;;;;;;;;;5001803;28;20038;-64
2022/08/27 10:37:43;;;;;;;7.57;3.55;;;;;;;;;;5000364;28;20045;-65
2022/08/27 10:40:24;;;;;;;6.30;3.65;;;;;;;;;;4997524;28;20030;-65
2022/08/27 10:43:09;;;;;;;10.40;3.60;;;;;;;;;;4996239;28;20056;-65
2022/08/27 10:45:43;;;;;;;7.63;3.67;;;;;;;;;;4997446;28;20052;-65
2022/08/27 10:48:16;;;;;;;6.68;3.33;;;;;;;;;;4996624;28;20056;-64
2022/08/27 10:50:49;;;;;;;7.47;3.67;;;;;;;;;;4994665;28;20041;-65
2022/08/27 10:53:15;;;;;;;;;;;;;;;;;;5000684;28;20542;-65
2022/08/27 10:55:50;;;;;;;7.25;3.65;;;;;;;;;;5022195;28;19921;-66
2022/08/27 10:58:21;;;;;;;5.63;3.20;;;;;;;;;;4997913;28;20038;-66
2022/08/27 11:00:57;;;;;;;5.78;3.60;;;;;;;;;;5005594;28;20041;-66
2022/08/27 11:03:40;;;;;;;6.53;3.20;;;;;;;;;;4999222;28;20041;-66
2022/08/27 11:06:27;;;;;;;6.38;3.60;;;;;;;;;;4994770;28;20052;-66
2022/08/27 11:08:57;;;;;;;5.20;2.95;;;;;;;;;;5001509;28;20053;-67
2022/08/27 11:11:27;;;;;;;5.88;3.35;;;;;;;;;;5000342;28;20038;-66
2022/08/27 11:13:57;;;;;;;5.93;3.55;;;;;;;;;;5001248;28;20046;-65
2022/08/27 11:16:26;;;;;;;5.70;3.40;;;;;;;;;;4997831;28;20038;-66
2022/08/27 11:18:52;;;;;;;6.10;3.28;;;;;;;;;;5007948;28;20052;-65
2022/08/27 11:21:34;;;;;;;5.63;2.80;;;;;;;;;;5008489;28;20463;-66
2022/08/27 11:24:06;;;;;;;6.53;2.95;;;;;;;;;;5006165;28;20045;-65
2022/08/27 11:26:33;;;;;;;5.45;2.92;;;;;;;;;;5006889;28;20053;-66
2022/08/27 11:29:01;;;;;;;6.25;2.85;;;;;;;;;;5008265;28;20457;-66
2022/08/27 11:31:28;;;;;;;5.20;2.80;;;;;;;;;;5002911;28;20038;-66
2022/08/27 11:33:57;;;;;;;5.85;2.95;;;;;;;;;;5004627;28;20410;-66
2022/08/27 11:36:24;;;;;;;5.90;2.83;;;;;;;;;;5003737;28;20108;-66
2022/08/27 11:38:57;;;;;;;4.43;2.58;;;;;;;;;;5002450;28;20101;-66
2022/08/27 11:41:42;;;;;;;6.00;2.88;;;;;;;;;;5002073;28;20694;-65
2022/08/27 11:44:09;;;;;;;7.85;2.90;;;;;;;;;;5002317;28;20057;-66
2022/08/27 11:46:43;;;;;;;6.47;3.15;;;;;;;;;;5001958;28;20045;-65
2022/08/27 11:49:10;;;;;;;5.60;3.15;;;;;;;;;;5001596;28;20967;-66
2022/08/27 11:51:39;;;;;;;5.47;2.85;;;;;;;;;;5000780;28;20050;-66
2022/08/27 11:54:07;;;;;;;5.22;3.00;;;;;;;;;;5000247;28;20125;-66
2022/08/27 11:56:38;;;;;;;5.68;2.67;;;;;;;;;;5004623;28;20448;-66
2022/08/27 11:59:11;;;;;;;5.28;3.00;;;;;;;;;;5000272;28;20048;-65
2022/08/27 12:01:39;;;;;;;5.03;3.03;;;;;;;;;;5001341;28;20403;-63
2022/08/27 12:04:28;;;;;;;5.75;2.78;;;;;;;;;;5000804;28;20602;-64
2022/08/27 12:07:04;;;;;;;5.40;2.95;;;;;;;;;;4995463;28;20046;-63
2022/08/27 12:09:42;;;;;;;5.13;2.58;;;;;;;;;;4998590;28;20073;-63
2022/08/27 12:12:15;;;;;;;5.57;2.72;;;;;;;;;;5000938;28;20046;-62
2022/08/27 12:14:48;;;;;;;5.47;2.78;;;;;;;;;;4999935;28;20042;-63
2022/08/27 12:17:31;;;;;;;4.35;2.55;;;;;;;;;;4999236;28;20030;-63
2022/08/27 12:20:13;;;;;;;5.50;2.72;;;;;;;;;;5006995;28;20048;-63
2022/08/27 12:25:27;;;;;;;6.45;3.10;;;;;;;;;;4999260;28;20060;-64
2022/08/27 12:27:56;;;;;;;6.50;3.30;;;;;;;;;;4999621;28;20129;-64
2022/08/27 12:30:28;;;;;;;5.22;2.75;;;;;;;;;;4997631;28;20557;-64
2022/08/27 12:32:56;;;;;;;5.72;2.67;;;;;;;;;;5000684;28;20045;-64
2022/08/27 12:35:28;;;;;;;6.97;3.13;;;;;;;;;;5000014;28;20046;-65
2022/08/27 12:37:55;;;;;;;5.30;2.80;;;;;;;;;;5001311;28;20057;-65
2022/08/27 12:40:29;;;;;;;5.15;2.67;;;;;;;;;;5000337;28;20512;-65
2022/08/27 12:43:06;;;;;;;8.45;4.22;;;;;;;;;;5000449;28;20388;-65
2022/08/27 12:45:33;;;;;;;8.10;3.28;;;;;;;;;;4999754;28;20077;-65
2022/08/27 12:48:00;;;;;;;7.35;2.90;;;;;;;;;;5000477;28;20100;-64
2022/08/27 12:50:29;;;;;;;5.50;2.90;;;;;;;;;;5000691;28;20042;-66
2022/08/27 12:53:03;;;;;;;5.70;3.25;;;;;;;;;;4999708;28;20044;-64
2022/08/27 12:55:36;;;;;;;6.63;3.10;;;;;;;;;;5001427;28;20471;-64
2022/08/27 12:58:23;;;;;;;7.18;3.15;;;;;;;;;;5000024;28;20049;-63
2022/08/27 13:00:57;;;;;;;6.40;2.90;;;;;;;;;;5015200;28;20042;-63
2022/08/27 13:03:59;;;;;;;5.90;2.78;;;;;;;;;;4997981;28;20135;-64
2022/08/27 13:06:36;;;;;;;6.45;3.10;;;;;;;;;;4970274;28;20051;-63
2022/08/27 13:09:05;;;;;;;6.18;2.92;;;;;;;;;;4995054;28;20115;-64
2022/08/27 13:11:34;;;;;;;5.30;3.03;;;;;;;;;;4998856;28;20057;-64
2022/08/27 13:14:12;;;;;;;5.80;3.05;;;;;;;;;;4998460;28;20141;-64
2022/08/27 13:16:44;;;;;;;5.30;2.78;;;;;;;;;;4997341;28;21779;-65
2022/08/27 13:19:16;;;;;;;4.95;2.30;;;;;;;;;;4997619;28;20042;-64
2022/08/27 13:21:46;;;;;;;5.40;2.50;;;;;;;;;;4997069;28;20052;-63
2022/08/27 13:24:13;;;;;;;4.55;2.33;;;;;;;;;;4997866;28;20398;-64
2022/08/27 13:26:47;;;;;;;5.65;2.40;;;;;;;;;;4997675;28;20044;-63
2022/08/27 13:29:14;;;;;;;4.90;2.55;;;;;;;;;;4997138;28;20053;-65
2022/08/27 13:31:41;;;;;;;7.82;2.65;;;;;;;;;;4997182;28;20041;-64
2022/08/27 13:34:07;;;;;;;5.07;2.80;;;;;;;;;;4997986;28;20046;-64
2022/08/27 13:36:36;;;;;;;6.35;2.30;;;;;;;;;;4998431;28;20050;-64
2022/08/27 13:39:04;;;;;;;7.13;2.25;;;;;;;;;;4997185;28;20045;-64
2022/08/27 13:41:33;;;;;;;5.22;2.10;;;;;;;;;;4998149;28;21664;-65
2022/08/27 13:44:10;;;;;;;4.53;2.40;;;;;;;;;;4998270;28;20046;-64
2022/08/27 13:46:44;;;;;;;5.22;2.88;;;;;;;;;;4997709;28;20104;-64
2022/08/27 13:49:14;;;;;;;5.88;2.58;;;;;;;;;;4997504;28;20073;-64
2022/08/27 13:51:41;;;;;;;6.15;2.97;;;;;;;;;;4996364;28;20049;-64
2022/08/27 13:54:12;;;;;;;8.30;2.45;;;;;;;;;;4998286;28;20084;-64
2022/08/27 13:57:02;;;;;;;4.65;2.47;;;;;;;;;;4997880;28;20033;-64
2022/08/27 13:59:30;;;;;;;4.57;2.22;;;;;;;;;;4997017;28;20107;-64
2022/08/27 14:02:16;;;;;;;4.55;2.22;;;;;;;;;;4997836;28;20768;-65
2022/08/27 14:04:45;;;;;;;4.78;1.92;;;;;;;;;;4997175;28;20041;-65
2022/08/27 14:07:23;;;;;;;5.47;2.30;;;;;;;;;;4998384;28;20139;-65
2022/08/27 14:09:54;;;;;;;5.88;1.98;;;;;;;;;;5025197;28;20080;-65
2022/08/27 14:12:32;;;;;;;10.82;2.38;;;;;;;;;;4993798;28;20038;-64
2022/08/27 14:15:10;;;;;;;5.43;2.50;;;;;;;;;;4997041;28;20048;-65
2022/08/27 14:17:37;;;;;;;6.35;2.50;;;;;;;;;;4996756;28;20042;-64
2022/08/27 14:20:05;;;;;;;5.65;2.17;;;;;;;;;;4998284;28;20038;-63
2022/08/27 14:22:35;;;;;;;4.95;2.38;;;;;;;;;;4998576;28;20049;-64
2022/08/27 14:25:01;;;;;;;5.35;2.15;;;;;;;;;;4998719;28;20042;-65
2022/08/27 14:27:28;;;;;;;4.82;2.00;;;;;;;;;;5013120;28;20046;-65
2022/08/27 14:29:55;;;;;;;5.15;2.20;;;;;;;;;;4999767;28;20082;-64
2022/08/27 14:32:22;;;;;;;4.28;1.83;;;;;;;;;;4998397;28;20042;-65
2022/08/27 14:34:48;;;;;;;14.70;3.88;;;;;;;;;;4998376;28;20071;-65
2022/08/27 14:37:15;;;;;;;7.85;2.42;;;;;;;;;;4999756;28;20138;-64
2022/08/27 14:39:42;;;;;;;4.57;2.10;;;;;;;;;;4998906;28;20063;-65
2022/08/27 14:42:10;;;;;;;5.47;2.50;;;;;;;;;;4996867;28;20042;-65
2022/08/27 14:44:36;;;;;;;5.40;2.63;;;;;;;;;;4996210;28;20068;-64
2022/08/27 14:47:04;;;;;;;6.25;2.58;;;;;;;;;;4999326;28;20052;-65
2022/08/27 14:49:33;;;;;;;4.80;2.63;;;;;;;;;;4998094;28;20056;-65
2022/08/27 14:51:59;;;;;;;6.15;2.75;;;;;;;;;;4998398;28;20116;-65
2022/08/27 14:54:26;;;;;;;5.05;2.80;;;;;;;;;;4998365;28;20081;-66
2022/08/27 14:56:54;;;;;;;6.65;3.42;;;;;;;;;;4999405;28;20034;-66
2022/08/27 14:59:21;;;;;;;7.75;3.00;;;;;;;;;;4999657;28;20073;-64
2022/08/27 15:01:48;;;;;;;6.63;3.40;;;;;;;;;;5013868;28;20034;-64
2022/08/27 15:04:15;;;;;;;6.20;3.22;;;;;;;;;;5002777;28;20811;-64
2022/08/27 15:06:42;;;;;;;6.35;3.95;;;;;;;;;;4998942;28;20057;-64
2022/08/27 15:09:08;;;;;;;7.63;3.90;;;;;;;;;;4997996;28;20081;-64